sensor_id;sensor_type;location;lat;lon;timestamp;pressure;altitude;pressure_sealevel;temperature;humidity
64023;BME280;50264;52.088;5.296;2023-01-10T00:02:25;101099.0;;;5.94;93.6
64023;BME280;50264;52.088;5.296;2023-01-10T00:04:02;101106.0;;;6.04;93.25
64023;BME280;50264;52.088;5.296;2023-01-10T00:05:39;101117.0;;;5.89;93.35
64023;BME280;50264;52.088;5.296;2023-01-10T00:08:52;101123.0;;;5.97;93.85
64023;BME280;50264;52.088;5.296;2023-01-10T00:10:28;101134.0;;;5.92;94.12
64023;BME280;50264;52.088;5.296;2023-01-10T00:13:23;101137.0;;;6.03;93.71
64023;BME280;50264;52.088;5.296;2023-01-10T00:15:48;101141.0;;;6.0;94.4
64023;BME280;50264;52.088;5.296;2023-01-10T00:17:24;101148.0;;;6.07;92.54
64023;BME280;50264;52.088;5.296;2023-01-10T00:19:00;101145.0;;;6.08;93.45
64023;BME280;50264;52.088;5.296;2023-01-10T00:20:37;101151.0;;;6.04;94.7
64023;BME280;50264;52.088;5.296;2023-01-10T00:22:22;101150.0;;;6.14;94.24
64023;BME280;50264;52.088;5.296;2023-01-10T00:25:35;101157.0;;;6.32;91.81
64023;BME280;50264;52.088;5.296;2023-01-10T00:27:11;101157.0;;;6.38;92.13
64023;BME280;50264;52.088;5.296;2023-01-10T00:28:48;101161.0;;;6.26;93.9
64023;BME280;50264;52.088;5.296;2023-01-10T00:32:04;101156.0;;;6.23;94.75
64023;BME280;50264;52.088;5.296;2023-01-10T00:33:39;101160.0;;;6.25;93.98
64023;BME280;50264;52.088;5.296;2023-01-10T00:35:16;101165.0;;;6.36;93.56
64023;BME280;50264;52.088;5.296;2023-01-10T00:36:52;101169.0;;;6.34;94.12
64023;BME280;50264;52.088;5.296;2023-01-10T00:40:10;101163.0;;;6.43;92.01
64023;BME280;50264;52.088;5.296;2023-01-10T00:44:08;101169.0;;;6.55;92.06
64023;BME280;50264;52.088;5.296;2023-01-10T00:45:44;101171.0;;;6.36;94.82
64023;BME280;50264;52.088;5.296;2023-01-10T00:47:21;101174.0;;;6.55;90.63
64023;BME280;50264;52.088;5.296;2023-01-10T00:50:34;101177.0;;;6.57;92.66
64023;BME280;50264;52.088;5.296;2023-01-10T00:52:10;101181.0;;;6.68;90.79
64023;BME280;50264;52.088;5.296;2023-01-10T00:53:46;101180.0;;;6.66;91.82
64023;BME280;50264;52.088;5.296;2023-01-10T00:56:58;101178.0;;;6.66;91.25
64023;BME280;50264;52.088;5.296;2023-01-10T00:58:34;101195.0;;;6.55;93.1
64023;BME280;50264;52.088;5.296;2023-01-10T01:00:12;101200.0;;;6.68;92.68
64023;BME280;50264;52.088;5.296;2023-01-10T01:03:25;101201.0;;;6.69;90.25
64023;BME280;50264;52.088;5.296;2023-01-10T01:05:02;101197.0;;;6.76;91.76
64023;BME280;50264;52.088;5.296;2023-01-10T01:06:42;101196.0;;;6.64;92.65
64023;BME280;50264;52.088;5.296;2023-01-10T01:08:19;101196.0;;;6.68;92.25
64023;BME280;50264;52.088;5.296;2023-01-10T01:12:03;101197.0;;;6.69;91.35
64023;BME280;50264;52.088;5.296;2023-01-10T01:13:39;101196.0;;;6.66;91.25
64023;BME280;50264;52.088;5.296;2023-01-10T01:15:16;101194.0;;;6.78;90.45
64023;BME280;50264;52.088;5.296;2023-01-10T01:16:51;101198.0;;;6.75;90.56
64023;BME280;50264;52.088;5.296;2023-01-10T01:20:06;101197.0;;;6.79;90.72
64023;BME280;50264;52.088;5.296;2023-01-10T01:21:44;101205.0;;;6.58;92.45
64023;BME280;50264;52.088;5.296;2023-01-10T01:23:21;101210.0;;;6.6;92.0
64023;BME280;50264;52.088;5.296;2023-01-10T01:24:57;101209.0;;;6.62;92.15
64023;BME280;50264;52.088;5.296;2023-01-10T01:28:11;101220.0;;;6.77;90.86
64023;BME280;50264;52.088;5.296;2023-01-10T01:29:47;101219.0;;;6.9;90.27
64023;BME280;50264;52.088;5.296;2023-01-10T01:31:24;101223.0;;;6.86;90.86
64023;BME280;50264;52.088;5.296;2023-01-10T01:34:36;101218.0;;;6.86;91.49
64023;BME280;50264;52.088;5.296;2023-01-10T01:36:12;101223.0;;;6.8;92.57
64023;BME280;50264;52.088;5.296;2023-01-10T01:37:49;101222.0;;;6.8;93.03
64023;BME280;50264;52.088;5.296;2023-01-10T01:41:02;101228.0;;;6.95;92.76
64023;BME280;50264;52.088;5.296;2023-01-10T01:42:39;101234.0;;;6.89;93.33
64023;BME280;50264;52.088;5.296;2023-01-10T01:44:17;101236.0;;;6.96;92.94
64023;BME280;50264;52.088;5.296;2023-01-10T01:45:56;101237.0;;;6.91;93.28
64023;BME280;50264;52.088;5.296;2023-01-10T01:49:21;101231.0;;;6.99;93.43
64023;BME280;50264;52.088;5.296;2023-01-10T01:51:07;101232.0;;;7.01;92.99
64023;BME280;50264;52.088;5.296;2023-01-10T01:52:47;101234.0;;;6.95;93.58
64023;BME280;50264;52.088;5.296;2023-01-10T01:54:27;101238.0;;;6.88;94.28
64023;BME280;50264;52.088;5.296;2023-01-10T01:57:51;101241.0;;;6.88;94.46
64023;BME280;50264;52.088;5.296;2023-01-10T01:59:32;101237.0;;;6.91;94.3
64023;BME280;50264;52.088;5.296;2023-01-10T02:01:12;101247.0;;;6.68;94.55
64023;BME280;50264;52.088;5.296;2023-01-10T02:02:51;101247.0;;;6.75;94.47
64023;BME280;50264;52.088;5.296;2023-01-10T02:06:17;101249.0;;;6.84;94.84
64023;BME280;50264;52.088;5.296;2023-01-10T02:07:57;101250.0;;;6.86;95.11
64023;BME280;50264;52.088;5.296;2023-01-10T02:09:39;101253.0;;;6.79;95.09
64023;BME280;50264;52.088;5.296;2023-01-10T02:11:19;101255.0;;;6.77;95.37
64023;BME280;50264;52.088;5.296;2023-01-10T02:14:39;101256.0;;;6.66;95.86
64023;BME280;50264;52.088;5.296;2023-01-10T02:16:17;101262.0;;;6.62;96.33
64023;BME280;50264;52.088;5.296;2023-01-10T02:17:55;101256.0;;;6.74;96.52
64023;BME280;50264;52.088;5.296;2023-01-10T02:19:42;101256.0;;;6.76;96.27
64023;BME280;50264;52.088;5.296;2023-01-10T02:21:48;101256.0;;;6.86;96.4
64023;BME280;50264;52.088;5.296;2023-01-10T02:25:34;101257.0;;;6.87;95.78
64023;BME280;50264;52.088;5.296;2023-01-10T02:29:37;101263.0;;;6.88;95.36
64023;BME280;50264;52.088;5.296;2023-01-10T02:32:59;101269.0;;;6.93;95.84
64023;BME280;50264;52.088;5.296;2023-01-10T02:34:52;101266.0;;;6.88;95.56
64023;BME280;50264;52.088;5.296;2023-01-10T02:36:37;101270.0;;;6.87;96.25
64023;BME280;50264;52.088;5.296;2023-01-10T02:38:25;101267.0;;;6.87;96.13
64023;BME280;50264;52.088;5.296;2023-01-10T02:41:58;101268.0;;;6.82;96.53
64023;BME280;50264;52.088;5.296;2023-01-10T02:43:40;101271.0;;;6.83;96.56
64023;BME280;50264;52.088;5.296;2023-01-10T02:45:25;101263.0;;;6.75;96.85
64023;BME280;50264;52.088;5.296;2023-01-10T02:47:06;101265.0;;;6.72;96.87
64023;BME280;50264;52.088;5.296;2023-01-10T02:48:43;101266.0;;;6.68;96.86
64023;BME280;50264;52.088;5.296;2023-01-10T02:52:34;101271.0;;;6.72;97.43
64023;BME280;50264;52.088;5.296;2023-01-10T02:54:15;101276.0;;;6.72;96.98
64023;BME280;50264;52.088;5.296;2023-01-10T02:56:11;101274.0;;;6.62;97.22
64023;BME280;50264;52.088;5.296;2023-01-10T02:58:04;101268.0;;;6.69;97.45
64023;BME280;50264;52.088;5.296;2023-01-10T03:00:02;101278.0;;;6.83;96.96
64023;BME280;50264;52.088;5.296;2023-01-10T03:03:25;101284.0;;;6.88;96.77
64023;BME280;50264;52.088;5.296;2023-01-10T03:07:07;101287.0;;;6.75;97.37
64023;BME280;50264;52.088;5.296;2023-01-10T03:08:50;101286.0;;;6.79;97.17
64023;BME280;50264;52.088;5.296;2023-01-10T03:10:36;101292.0;;;6.74;97.03
64023;BME280;50264;52.088;5.296;2023-01-10T03:12:20;101292.0;;;6.7;97.05
64023;BME280;50264;52.088;5.296;2023-01-10T03:14:10;101298.0;;;6.75;97.03
64023;BME280;50264;52.088;5.296;2023-01-10T03:15:51;101305.0;;;6.68;96.45
64023;BME280;50264;52.088;5.296;2023-01-10T03:19:08;101306.0;;;6.71;96.86
64023;BME280;50264;52.088;5.296;2023-01-10T03:20:46;101311.0;;;6.84;95.78
64023;BME280;50264;52.088;5.296;2023-01-10T03:22:28;101315.0;;;7.03;95.17
64023;BME280;50264;52.088;5.296;2023-01-10T03:24:10;101320.0;;;7.02;94.82
64023;BME280;50264;52.088;5.296;2023-01-10T03:27:36;101320.0;;;7.13;94.31
64023;BME280;50264;52.088;5.296;2023-01-10T03:29:25;101320.0;;;7.13;93.75
64023;BME280;50264;52.088;5.296;2023-01-10T03:31:09;101321.0;;;7.09;94.44
64023;BME280;50264;52.088;5.296;2023-01-10T03:32:47;101321.0;;;7.08;93.77
64023;BME280;50264;52.088;5.296;2023-01-10T03:36:10;101330.0;;;6.97;94.15
64023;BME280;50264;52.088;5.296;2023-01-10T03:37:54;101338.0;;;6.99;94.41
64023;BME280;50264;52.088;5.296;2023-01-10T03:39:39;101341.0;;;7.1;93.96
64023;BME280;50264;52.088;5.296;2023-01-10T03:45:01;101344.0;;;6.99;95.02
64023;BME280;50264;52.088;5.296;2023-01-10T03:46:45;101348.0;;;6.92;95.35
64023;BME280;50264;52.088;5.296;2023-01-10T03:48:29;101355.0;;;7.11;94.91
64023;BME280;50264;52.088;5.296;2023-01-10T03:50:12;101355.0;;;6.97;94.97
64023;BME280;50264;52.088;5.296;2023-01-10T03:51:50;101357.0;;;6.84;95.49
64023;BME280;50264;52.088;5.296;2023-01-10T03:53:28;101359.0;;;6.87;95.35
64023;BME280;50264;52.088;5.296;2023-01-10T03:56:46;101364.0;;;6.9;95.4
64023;BME280;50264;52.088;5.296;2023-01-10T03:58:23;101365.0;;;6.74;95.89
64023;BME280;50264;52.088;5.296;2023-01-10T03:59:59;101363.0;;;6.7;95.79
64023;BME280;50264;52.088;5.296;2023-01-10T04:03:12;101364.0;;;6.75;96.26
64023;BME280;50264;52.088;5.296;2023-01-10T04:04:48;101369.0;;;6.62;96.5
64023;BME280;50264;52.088;5.296;2023-01-10T04:06:24;101373.0;;;6.65;96.53
64023;BME280;50264;52.088;5.296;2023-01-10T04:09:36;101375.0;;;6.67;96.98
64023;BME280;50264;52.088;5.296;2023-01-10T04:11:12;101374.0;;;6.65;96.87
64023;BME280;50264;52.088;5.296;2023-01-10T04:12:48;101380.0;;;6.67;96.71
64023;BME280;50264;52.088;5.296;2023-01-10T04:14:25;101386.0;;;6.8;96.28
64023;BME280;50264;52.088;5.296;2023-01-10T04:17:37;101380.0;;;6.78;96.22
64023;BME280;50264;52.088;5.296;2023-01-10T04:19:13;101387.0;;;6.78;96.41
64023;BME280;50264;52.088;5.296;2023-01-10T04:20:49;101392.0;;;6.76;96.57
64023;BME280;50264;52.088;5.296;2023-01-10T04:25:38;101387.0;;;6.68;96.29
64023;BME280;50264;52.088;5.296;2023-01-10T04:27:14;101395.0;;;6.77;96.01
64023;BME280;50264;52.088;5.296;2023-01-10T04:30:27;101398.0;;;6.74;95.95
64023;BME280;50264;52.088;5.296;2023-01-10T04:32:03;101400.0;;;6.74;95.25
64023;BME280;50264;52.088;5.296;2023-01-10T04:33:40;101398.0;;;6.63;96.15
64023;BME280;50264;52.088;5.296;2023-01-10T04:35:16;101406.0;;;6.61;96.11
64023;BME280;50264;52.088;5.296;2023-01-10T04:38:28;101406.0;;;6.39;96.32
64023;BME280;50264;52.088;5.296;2023-01-10T04:40:06;101412.0;;;6.43;96.38
64023;BME280;50264;52.088;5.296;2023-01-10T04:41:44;101413.0;;;6.31;96.28
64023;BME280;50264;52.088;5.296;2023-01-10T04:44:57;101409.0;;;6.32;96.6
64023;BME280;50264;52.088;5.296;2023-01-10T04:46:33;101415.0;;;6.23;96.25
64023;BME280;50264;52.088;5.296;2023-01-10T04:48:10;101419.0;;;6.18;96.35
64023;BME280;50264;52.088;5.296;2023-01-10T04:51:23;101417.0;;;6.1;96.8
64023;BME280;50264;52.088;5.296;2023-01-10T04:52:59;101419.0;;;6.03;96.98
64023;BME280;50264;52.088;5.296;2023-01-10T04:54:35;101422.0;;;6.05;96.83
64023;BME280;50264;52.088;5.296;2023-01-10T04:56:15;101423.0;;;5.9;96.58
64023;BME280;50264;52.088;5.296;2023-01-10T04:59:28;101423.0;;;5.82;96.26
64023;BME280;50264;52.088;5.296;2023-01-10T05:01:06;101430.0;;;5.82;96.0
64023;BME280;50264;52.088;5.296;2023-01-10T05:02:43;101433.0;;;5.71;96.91
64023;BME280;50264;52.088;5.296;2023-01-10T05:05:57;101430.0;;;5.75;97.04
64023;BME280;50264;52.088;5.296;2023-01-10T05:07:33;101425.0;;;5.73;97.1
64023;BME280;50264;52.088;5.296;2023-01-10T05:09:09;101430.0;;;5.57;96.21
64023;BME280;50264;52.088;5.296;2023-01-10T05:12:21;101426.0;;;5.53;97.05
64023;BME280;50264;52.088;5.296;2023-01-10T05:13:57;101435.0;;;5.51;96.41
64023;BME280;50264;52.088;5.296;2023-01-10T05:15:33;101435.0;;;5.49;96.73
64023;BME280;50264;52.088;5.296;2023-01-10T05:17:09;101438.0;;;5.42;97.16
64023;BME280;50264;52.088;5.296;2023-01-10T05:20:22;101442.0;;;5.36;97.05
64023;BME280;50264;52.088;5.296;2023-01-10T05:21:58;101458.0;;;5.4;97.26
64023;BME280;50264;52.088;5.296;2023-01-10T05:23:34;101460.0;;;5.32;96.68
64023;BME280;50264;52.088;5.296;2023-01-10T05:26:47;101470.0;;;5.23;96.46
64023;BME280;50264;52.088;5.296;2023-01-10T05:28:23;101474.0;;;5.25;97.07
64023;BME280;50264;52.088;5.296;2023-01-10T05:29:59;101477.0;;;5.22;96.4
64023;BME280;50264;52.088;5.296;2023-01-10T05:33:13;101480.0;;;5.23;97.71
64023;BME280;50264;52.088;5.296;2023-01-10T05:34:49;101478.0;;;5.25;97.33
64023;BME280;50264;52.088;5.296;2023-01-10T05:36:25;101481.0;;;5.26;97.62
64023;BME280;50264;52.088;5.296;2023-01-10T05:38:01;101480.0;;;5.33;98.03
64023;BME280;50264;52.088;5.296;2023-01-10T05:41:15;101476.0;;;5.43;97.89
64023;BME280;50264;52.088;5.296;2023-01-10T05:42:51;101481.0;;;5.46;98.28
64023;BME280;50264;52.088;5.296;2023-01-10T05:44:28;101485.0;;;5.6;97.6
64023;BME280;50264;52.088;5.296;2023-01-10T05:47:40;101490.0;;;5.49;97.38
64023;BME280;50264;52.088;5.296;2023-01-10T05:49:16;101485.0;;;5.64;98.03
64023;BME280;50264;52.088;5.296;2023-01-10T05:54:05;101496.0;;;5.85;98.46
64023;BME280;50264;52.088;5.296;2023-01-10T05:55:42;101501.0;;;5.99;98.68
64023;BME280;50264;52.088;5.296;2023-01-10T05:57:18;101497.0;;;6.07;97.85
64023;BME280;50264;52.088;5.296;2023-01-10T06:00:31;101498.0;;;6.07;97.33
64023;BME280;50264;52.088;5.296;2023-01-10T06:02:07;101492.0;;;6.2;97.62
64023;BME280;50264;52.088;5.296;2023-01-10T06:03:43;101498.0;;;6.28;97.45
64023;BME280;50264;52.088;5.296;2023-01-10T06:05:19;101497.0;;;6.35;97.15
64023;BME280;50264;52.088;5.296;2023-01-10T06:08:32;101502.0;;;6.47;97.06
64023;BME280;50264;52.088;5.296;2023-01-10T06:10:09;101508.0;;;6.51;95.92
64023;BME280;50264;52.088;5.296;2023-01-10T06:11:45;101511.0;;;6.48;95.81
64023;BME280;50264;52.088;5.296;2023-01-10T06:14:58;101508.0;;;6.66;95.62
64023;BME280;50264;52.088;5.296;2023-01-10T06:16:34;101509.0;;;6.74;95.91
64023;BME280;50264;52.088;5.296;2023-01-10T06:18:11;101513.0;;;6.78;95.31
64023;BME280;50264;52.088;5.296;2023-01-10T06:21:23;101514.0;;;6.81;95.6
64023;BME280;50264;52.088;5.296;2023-01-10T06:23:03;101519.0;;;6.73;95.88
64023;BME280;50264;52.088;5.296;2023-01-10T06:24:39;101517.0;;;6.67;96.29
64023;BME280;50264;52.088;5.296;2023-01-10T06:26:17;101522.0;;;6.74;95.96
64023;BME280;50264;52.088;5.296;2023-01-10T06:29:31;101520.0;;;6.83;95.64
64023;BME280;50264;52.088;5.296;2023-01-10T06:31:07;101518.0;;;6.9;95.4
64023;BME280;50264;52.088;5.296;2023-01-10T06:32:44;101528.0;;;6.93;95.09
64023;BME280;50264;52.088;5.296;2023-01-10T06:35:56;101528.0;;;6.99;94.34
64023;BME280;50264;52.088;5.296;2023-01-10T06:37:32;101531.0;;;7.03;94.48
64023;BME280;50264;52.088;5.296;2023-01-10T06:39:09;101535.0;;;6.97;94.75
64023;BME280;50264;52.088;5.296;2023-01-10T06:40:45;101539.0;;;7.09;94.2
64023;BME280;50264;52.088;5.296;2023-01-10T06:43:57;101543.0;;;7.09;94.5
64023;BME280;50264;52.088;5.296;2023-01-10T06:45:33;101541.0;;;7.16;93.98
64023;BME280;50264;52.088;5.296;2023-01-10T06:47:10;101541.0;;;7.17;93.71
64023;BME280;50264;52.088;5.296;2023-01-10T06:50:23;101540.0;;;7.23;93.53
64023;BME280;50264;52.088;5.296;2023-01-10T06:52:01;101549.0;;;7.2;93.68
64023;BME280;50264;52.088;5.296;2023-01-10T06:53:37;101557.0;;;7.27;93.52
64023;BME280;50264;52.088;5.296;2023-01-10T06:56:50;101545.0;;;7.28;93.55
64023;BME280;50264;52.088;5.296;2023-01-10T06:58:27;101555.0;;;7.16;94.21
64023;BME280;50264;52.088;5.296;2023-01-10T07:00:06;101563.0;;;7.23;94.11
64023;BME280;50264;52.088;5.296;2023-01-10T07:01:44;101571.0;;;7.21;93.47
64023;BME280;50264;52.088;5.296;2023-01-10T07:04:56;101572.0;;;7.29;93.51
64023;BME280;50264;52.088;5.296;2023-01-10T07:06:35;101569.0;;;7.16;92.72
64023;BME280;50264;52.088;5.296;2023-01-10T07:08:11;101563.0;;;7.14;93.19
64023;BME280;50264;52.088;5.296;2023-01-10T07:11:23;101561.0;;;7.07;93.03
64023;BME280;50264;52.088;5.296;2023-01-10T07:13:00;101563.0;;;7.07;93.56
64023;BME280;50264;52.088;5.296;2023-01-10T07:14:36;101568.0;;;7.15;93.52
64023;BME280;50264;52.088;5.296;2023-01-10T07:17:51;101567.0;;;7.09;92.74
64023;BME280;50264;52.088;5.296;2023-01-10T07:19:27;101572.0;;;7.19;92.93
64023;BME280;50264;52.088;5.296;2023-01-10T07:21:04;101584.0;;;7.22;93.11
64023;BME280;50264;52.088;5.296;2023-01-10T07:22:40;101588.0;;;7.17;93.14
64023;BME280;50264;52.088;5.296;2023-01-10T07:25:53;101594.0;;;7.11;92.57
64023;BME280;50264;52.088;5.296;2023-01-10T07:27:29;101606.0;;;7.17;92.31
64023;BME280;50264;52.088;5.296;2023-01-10T07:29:06;101616.0;;;7.24;91.87
64023;BME280;50264;52.088;5.296;2023-01-10T07:32:18;101614.0;;;7.11;92.03
64023;BME280;50264;52.088;5.296;2023-01-10T07:33:54;101617.0;;;7.17;92.11
64023;BME280;50264;52.088;5.296;2023-01-10T07:35:31;101614.0;;;7.11;91.36
64023;BME280;50264;52.088;5.296;2023-01-10T07:38:43;101623.0;;;7.08;92.04
64023;BME280;50264;52.088;5.296;2023-01-10T07:40:19;101625.0;;;6.96;92.79
64023;BME280;50264;52.088;5.296;2023-01-10T07:41:55;101628.0;;;6.92;93.9
64023;BME280;50264;52.088;5.296;2023-01-10T07:43:32;101624.0;;;6.77;92.15
64023;BME280;50264;52.088;5.296;2023-01-10T07:46:45;101634.0;;;6.86;92.02
64023;BME280;50264;52.088;5.296;2023-01-10T07:48:21;101642.0;;;6.8;92.59
64023;BME280;50264;52.088;5.296;2023-01-10T07:49:57;101633.0;;;6.83;91.69
64023;BME280;50264;52.088;5.296;2023-01-10T07:53:10;101641.0;;;6.88;92.16
64023;BME280;50264;52.088;5.296;2023-01-10T07:54:47;101639.0;;;6.88;92.1
64023;BME280;50264;52.088;5.296;2023-01-10T07:56:23;101645.0;;;6.76;90.55
64023;BME280;50264;52.088;5.296;2023-01-10T07:59:37;101642.0;;;6.82;91.58
64023;BME280;50264;52.088;5.296;2023-01-10T08:01:14;101641.0;;;6.74;90.64
64023;BME280;50264;52.088;5.296;2023-01-10T08:02:52;101645.0;;;6.68;91.69
64023;BME280;50264;52.088;5.296;2023-01-10T08:04:29;101638.0;;;6.58;91.78
64023;BME280;50264;52.088;5.296;2023-01-10T08:07:44;101643.0;;;6.62;91.21
64023;BME280;50264;52.088;5.296;2023-01-10T08:09:20;101647.0;;;6.63;92.1
64023;BME280;50264;52.088;5.296;2023-01-10T08:10:58;101643.0;;;6.69;92.02
64023;BME280;50264;52.088;5.296;2023-01-10T08:14:11;101646.0;;;6.6;91.19
64023;BME280;50264;52.088;5.296;2023-01-10T08:15:49;101649.0;;;6.64;91.27
64023;BME280;50264;52.088;5.296;2023-01-10T08:17:27;101657.0;;;6.58;90.93
64023;BME280;50264;52.088;5.296;2023-01-10T08:20:39;101653.0;;;6.44;92.02
64023;BME280;50264;52.088;5.296;2023-01-10T08:22:16;101664.0;;;6.49;91.62
64023;BME280;50264;52.088;5.296;2023-01-10T08:23:53;101665.0;;;6.47;91.28
64023;BME280;50264;52.088;5.296;2023-01-10T08:25:29;101657.0;;;6.39;91.58
64023;BME280;50264;52.088;5.296;2023-01-10T08:28:42;101667.0;;;6.45;90.85
64023;BME280;50264;52.088;5.296;2023-01-10T08:30:18;101657.0;;;6.53;91.43
64023;BME280;50264;52.088;5.296;2023-01-10T08:31:54;101651.0;;;6.56;91.54
64023;BME280;50264;52.088;5.296;2023-01-10T08:35:08;101655.0;;;6.62;91.05
64023;BME280;50264;52.088;5.296;2023-01-10T08:36:48;101651.0;;;6.69;90.45
64023;BME280;50264;52.088;5.296;2023-01-10T08:38:25;101650.0;;;6.74;91.12
64023;BME280;50264;52.088;5.296;2023-01-10T08:40:01;101646.0;;;6.66;90.28
64023;BME280;50264;52.088;5.296;2023-01-10T08:43:15;101648.0;;;6.63;90.81
64023;BME280;50264;52.088;5.296;2023-01-10T08:44:51;101655.0;;;6.79;90.56
64023;BME280;50264;52.088;5.296;2023-01-10T08:46:27;101656.0;;;6.77;89.51
64023;BME280;50264;52.088;5.296;2023-01-10T08:49:41;101655.0;;;6.77;90.43
64023;BME280;50264;52.088;5.296;2023-01-10T08:51:18;101655.0;;;6.77;89.89
64023;BME280;50264;52.088;5.296;2023-01-10T08:52:56;101655.0;;;6.85;90.96
64023;BME280;50264;52.088;5.296;2023-01-10T08:56:09;101644.0;;;6.72;90.17
64023;BME280;50264;52.088;5.296;2023-01-10T08:57:46;101641.0;;;6.8;90.17
64023;BME280;50264;52.088;5.296;2023-01-10T08:59:22;101634.0;;;6.86;90.03
64023;BME280;50264;52.088;5.296;2023-01-10T09:00:58;101642.0;;;6.88;89.65
64023;BME280;50264;52.088;5.296;2023-01-10T09:04:15;101637.0;;;6.89;88.97
64023;BME280;50264;52.088;5.296;2023-01-10T09:05:51;101630.0;;;6.89;89.27
64023;BME280;50264;52.088;5.296;2023-01-10T09:07:27;101637.0;;;6.86;89.77
64023;BME280;50264;52.088;5.296;2023-01-10T09:10:40;101641.0;;;6.65;90.7
64023;BME280;50264;52.088;5.296;2023-01-10T09:13:20;101640.0;;;6.69;90.96
64023;BME280;50264;52.088;5.296;2023-01-10T09:14:56;101640.0;;;6.84;90.48
64023;BME280;50264;52.088;5.296;2023-01-10T09:16:32;101644.0;;;6.75;89.45
64023;BME280;50264;52.088;5.296;2023-01-10T09:18:10;101646.0;;;6.84;89.84
64023;BME280;50264;52.088;5.296;2023-01-10T09:19:48;101637.0;;;6.75;89.49
64023;BME280;50264;52.088;5.296;2023-01-10T09:23:04;101639.0;;;6.74;89.83
64023;BME280;50264;52.088;5.296;2023-01-10T09:24:43;101642.0;;;6.73;90.39
64023;BME280;50264;52.088;5.296;2023-01-10T09:26:19;101635.0;;;6.76;90.08
64023;BME280;50264;52.088;5.296;2023-01-10T09:29:33;101638.0;;;6.89;90.27
64023;BME280;50264;52.088;5.296;2023-01-10T09:31:11;101640.0;;;6.87;90.04
64023;BME280;50264;52.088;5.296;2023-01-10T09:32:48;101633.0;;;6.75;90.23
64023;BME280;50264;52.088;5.296;2023-01-10T09:34:25;101635.0;;;6.73;90.16
64023;BME280;50264;52.088;5.296;2023-01-10T09:37:38;101633.0;;;6.76;89.32
64023;BME280;50264;52.088;5.296;2023-01-10T09:39:14;101630.0;;;6.55;89.75
64023;BME280;50264;52.088;5.296;2023-01-10T09:40:59;101634.0;;;6.7;90.27
64023;BME280;50264;52.088;5.296;2023-01-10T09:42:58;101635.0;;;6.76;90.28
64023;BME280;50264;52.088;5.296;2023-01-10T09:46:36;101635.0;;;6.85;91.07
64023;BME280;50264;52.088;5.296;2023-01-10T09:48:23;101636.0;;;6.91;89.57
64023;BME280;50264;52.088;5.296;2023-01-10T09:50:10;101637.0;;;6.82;88.59
64023;BME280;50264;52.088;5.296;2023-01-10T09:51:55;101631.0;;;6.85;90.27
64023;BME280;50264;52.088;5.296;2023-01-10T09:53:33;101632.0;;;6.83;88.93
64023;BME280;50264;52.088;5.296;2023-01-10T09:57:02;101638.0;;;6.64;88.95
64023;BME280;50264;52.088;5.296;2023-01-10T09:58:39;101636.0;;;6.6;88.24
64023;BME280;50264;52.088;5.296;2023-01-10T10:00:19;101637.0;;;6.46;89.53
64023;BME280;50264;52.088;5.296;2023-01-10T10:02:03;101637.0;;;6.68;90.72
64023;BME280;50264;52.088;5.296;2023-01-10T10:03:54;101640.0;;;6.64;90.1
64023;BME280;50264;52.088;5.296;2023-01-10T10:07:13;101636.0;;;6.63;88.53
64023;BME280;50264;52.088;5.296;2023-01-10T10:08:51;101649.0;;;6.7;88.31
64023;BME280;50264;52.088;5.296;2023-01-10T10:10:35;101646.0;;;6.81;88.25
64023;BME280;50264;52.088;5.296;2023-01-10T10:12:25;101641.0;;;6.86;88.4
64023;BME280;50264;52.088;5.296;2023-01-10T10:16:05;101630.0;;;6.87;86.63
64023;BME280;50264;52.088;5.296;2023-01-10T10:17:48;101634.0;;;6.84;87.79
64023;BME280;50264;52.088;5.296;2023-01-10T10:19:37;101641.0;;;6.74;86.97
64023;BME280;50264;52.088;5.296;2023-01-10T10:21:27;101642.0;;;6.7;87.73
64023;BME280;50264;52.088;5.296;2023-01-10T10:23:20;101634.0;;;6.85;88.24
64023;BME280;50264;52.088;5.296;2023-01-10T10:25:14;101637.0;;;6.73;88.64
64023;BME280;50264;52.088;5.296;2023-01-10T10:27:01;101634.0;;;6.56;88.07
64023;BME280;50264;52.088;5.296;2023-01-10T10:31:58;101630.0;;;6.51;87.64
64023;BME280;50264;52.088;5.296;2023-01-10T10:33:54;101622.0;;;6.54;88.53
64023;BME280;50264;52.088;5.296;2023-01-10T10:35:38;101627.0;;;6.65;89.15
64023;BME280;50264;52.088;5.296;2023-01-10T10:37:21;101618.0;;;6.79;86.56
64023;BME280;50264;52.088;5.296;2023-01-10T10:40:41;101611.0;;;6.79;87.38
64023;BME280;50264;52.088;5.296;2023-01-10T10:42:19;101614.0;;;6.82;88.36
64023;BME280;50264;52.088;5.296;2023-01-10T10:43:58;101609.0;;;6.88;87.09
64023;BME280;50264;52.088;5.296;2023-01-10T10:45:41;101606.0;;;6.83;86.23
64023;BME280;50264;52.088;5.296;2023-01-10T10:49:02;101603.0;;;6.81;85.91
64023;BME280;50264;52.088;5.296;2023-01-10T10:50:49;101599.0;;;6.82;86.36
64023;BME280;50264;52.088;5.296;2023-01-10T10:52:32;101594.0;;;6.84;87.06
64023;BME280;50264;52.088;5.296;2023-01-10T10:54:11;101599.0;;;6.77;85.91
64023;BME280;50264;52.088;5.296;2023-01-10T10:57:28;101593.0;;;6.79;85.55
64023;BME280;50264;52.088;5.296;2023-01-10T10:59:05;101589.0;;;6.94;87.89
64023;BME280;50264;52.088;5.296;2023-01-10T11:00:41;101585.0;;;6.88;87.95
64023;BME280;50264;52.088;5.296;2023-01-10T11:02:23;101584.0;;;6.94;85.7
64023;BME280;50264;52.088;5.296;2023-01-10T11:05:43;101574.0;;;6.95;86.68
64023;BME280;50264;52.088;5.296;2023-01-10T11:07:22;101573.0;;;6.86;86.28
64023;BME280;50264;52.088;5.296;2023-01-10T11:09:02;101570.0;;;6.95;87.23
64023;BME280;50264;52.088;5.296;2023-01-10T11:10:41;101571.0;;;6.93;86.16
64023;BME280;50264;52.088;5.296;2023-01-10T11:14:09;101566.0;;;6.83;85.77
64023;BME280;50264;52.088;5.296;2023-01-10T11:15:48;101563.0;;;6.71;85.85
64023;BME280;50264;52.088;5.296;2023-01-10T11:17:26;101561.0;;;6.83;86.07
64023;BME280;50264;52.088;5.296;2023-01-10T11:19:18;101562.0;;;6.88;86.34
64023;BME280;50264;52.088;5.296;2023-01-10T11:22:38;101567.0;;;6.93;86.68
64023;BME280;50264;52.088;5.296;2023-01-10T11:24:25;101565.0;;;6.97;85.8
64023;BME280;50264;52.088;5.296;2023-01-10T11:26:03;101555.0;;;6.94;84.57
64023;BME280;50264;52.088;5.296;2023-01-10T11:27:45;101544.0;;;7.03;84.5
64023;BME280;50264;52.088;5.296;2023-01-10T11:31:02;101548.0;;;7.03;85.61
64023;BME280;50264;52.088;5.296;2023-01-10T11:32:48;101556.0;;;7.09;85.43